Time;durP1;ratioP1;P1;durP2;ratioP2;P2;SDS_P1;SDS_P2;PMS_P1;PMS_P2;Temp;Humidity;BMP_temperature;BMP_pressure;BME280_temperature;BME280_humidity;BME280_pressure;Samples;Min_cycle;Max_cycle;Signal;HPM_P1;HPM_P2
2023/06/15 00:00:44;;;;;;;7.70;4.32;;;;;;;17.68;61.09;101733.13;4990958;28;20500;-73
2023/06/15 00:03:10;;;;;;;5.93;4.72;;;;;;;17.64;61.48;101730.06;5008365;28;20113;-72
2023/06/15 00:05:36;;;;;;;6.75;4.10;;;;;;;17.64;60.76;101724.66;4990677;28;20116;-73
2023/06/15 00:08:01;;;;;;;5.68;4.38;;;;;;;17.56;61.85;101726.84;5001456;28;20038;-72
2023/06/15 00:10:27;;;;;;;4.53;3.70;;;;;;;17.53;62.45;101726.22;4989218;28;20034;-72
2023/06/15 00:12:52;;;;;;;8.20;5.25;;;;;;;17.47;62.20;101721.69;4989523;28;20076;-73
2023/06/15 00:15:18;;;;;;;6.30;4.95;;;;;;;17.46;62.50;101720.06;4989562;28;20054;-73
2023/06/15 00:17:44;;;;;;;7.25;4.68;;;;;;;17.44;62.52;101724.84;4975740;28;20113;-72
2023/06/15 00:20:12;;;;;;;10.32;4.60;;;;;;;17.41;62.73;101725.28;4993248;28;20034;-72
2023/06/15 00:22:40;;;;;;;6.97;4.68;;;;;;;17.34;62.26;101716.41;4975476;28;20401;-73
2023/06/15 00:25:06;;;;;;;10.23;4.28;;;;;;;17.32;62.78;101710.44;4993431;28;20034;-73
2023/06/15 00:27:33;;;;;;;6.60;4.20;;;;;;;17.23;63.47;101711.75;4993062;28;20033;-73
2023/06/15 00:29:58;;;;;;;5.97;4.38;;;;;;;17.23;62.86;101717.97;4992884;28;20567;-73
2023/06/15 00:32:23;;;;;;;8.70;5.03;;;;;;;17.18;65.04;101722.38;4992972;28;20474;-73
2023/06/15 00:34:49;;;;;;;7.85;4.57;;;;;;;17.22;63.75;101731.69;4992769;28;20035;-73
2023/06/15 00:37:14;;;;;;;5.43;4.43;;;;;;;17.15;65.29;101739.81;4992934;28;20026;-73
2023/06/15 00:39:40;;;;;;;7.13;5.22;;;;;;;17.15;65.05;101738.97;4992753;28;20030;-73
2023/06/15 00:42:05;;;;;;;7.78;4.63;;;;;;;17.13;66.07;101741.06;4992605;28;20061;-73
2023/06/15 00:44:31;;;;;;;10.05;5.47;;;;;;;17.08;66.13;101739.00;5002000;28;20121;-72
2023/06/15 00:46:59;;;;;;;8.02;4.50;;;;;;;16.96;66.87;101740.78;4992582;28;20023;-72
2023/06/15 00:49:25;;;;;;;7.28;5.05;;;;;;;16.99;66.68;101740.34;4992566;28;20386;-72
2023/06/15 00:51:51;;;;;;;10.20;5.32;;;;;;;16.99;65.92;101740.34;4992515;28;20030;-73
2023/06/15 00:54:21;;;;;;;6.80;4.72;;;;;;;16.97;66.97;101753.19;5007139;28;20084;-72
2023/06/15 00:56:47;;;;;;;8.65;5.05;;;;;;;16.95;67.21;101739.09;5011167;28;20032;-72
2023/06/15 00:59:12;;;;;;;7.47;5.05;;;;;;;16.94;67.16;101746.38;5011374;28;20029;-73
2023/06/15 01:01:38;;;;;;;8.50;5.35;;;;;;;16.90;66.70;101741.63;5011138;28;20148;-72
2023/06/15 01:04:03;;;;;;;7.50;4.97;;;;;;;16.93;67.40;101742.03;5010991;28;20046;-72
2023/06/15 01:06:31;;;;;;;7.72;4.80;;;;;;;16.89;67.37;101748.06;5006259;28;20120;-72
2023/06/15 01:09:01;;;;;;;9.48;5.40;;;;;;;16.83;68.79;101734.41;5010869;28;20252;-73
2023/06/15 01:11:28;;;;;;;7.50;5.55;;;;;;;16.73;73.01;101734.03;5011306;28;20084;-73
2023/06/15 01:13:55;;;;;;;9.57;5.75;;;;;;;16.52;72.96;101740.56;5010942;28;20125;-72
2023/06/15 01:16:29;;;;;;;10.20;5.72;;;;;;;16.42;74.45;101732.94;5011022;28;20937;-73
2023/06/15 01:18:59;;;;;;;9.60;5.70;;;;;;;16.25;74.61;101747.91;4991617;28;20508;-72
2023/06/15 01:21:27;;;;;;;10.18;5.93;;;;;;;16.11;75.19;101743.59;4991946;28;20030;-73
2023/06/15 01:24:18;;;;;;;9.00;5.53;;;;;;;16.12;75.12;101740.72;4991867;28;20113;-72
2023/06/15 01:26:46;;;;;;;11.48;6.30;;;;;;;16.08;74.06;101741.34;4991807;28;20038;-73
2023/06/15 01:29:16;;;;;;;10.93;5.53;;;;;;;16.10;74.51;101744.66;4993632;28;20478;-73
2023/06/15 01:31:43;;;;;;;10.63;6.13;;;;;;;16.01;75.52;101760.22;5010724;28;20084;-73
2023/06/15 01:34:08;;;;;;;8.93;5.35;;;;;;;16.01;73.04;101746.75;5010491;28;20053;-73
2023/06/15 01:36:35;;;;;;;11.57;6.45;;;;;;;16.01;73.12;101749.44;5010713;28;20072;-73
2023/06/15 01:39:00;;;;;;;8.05;5.82;;;;;;;16.09;73.65;101741.16;5010676;28;20088;-72
2023/06/15 01:41:27;;;;;;;8.68;5.25;;;;;;;16.09;76.81;101751.09;4992929;28;20041;-73
2023/06/15 01:43:53;;;;;;;8.57;6.15;;;;;;;16.14;73.60;101756.66;5010442;28;20034;-73
2023/06/15 01:46:21;;;;;;;12.25;6.22;;;;;;;16.15;72.73;101752.91;5010668;28;20029;-73
2023/06/15 01:48:46;;;;;;;7.80;5.68;;;;;;;16.19;73.57;101762.22;5010172;28;20029;-72
2023/06/15 01:51:12;;;;;;;6.00;5.40;;;;;;;16.24;71.83;101761.59;5010287;28;20547;-73
2023/06/15 01:53:38;;;;;;;7.07;5.38;;;;;;;16.24;71.99;101758.88;5010047;28;20034;-73
2023/06/15 01:56:03;;;;;;;8.30;5.75;;;;;;;16.20;72.26;101755.81;5010133;28;20440;-72
2023/06/15 01:58:28;;;;;;;10.68;6.32;;;;;;;16.10;75.84;101750.84;5010251;28;20464;-72
2023/06/15 02:00:54;;;;;;;9.23;4.95;;;;;;;16.05;74.89;101745.28;4990969;28;20580;-72
2023/06/15 02:03:19;;;;;;;8.45;5.78;;;;;;;16.06;74.84;101751.47;4991014;28;20108;-72
2023/06/15 02:05:45;;;;;;;6.93;5.15;;;;;;;16.07;76.97;101758.53;4991275;28;20109;-73
2023/06/15 02:08:11;;;;;;;9.13;5.20;;;;;;;16.03;77.45;101751.91;4991603;28;20464;-72
2023/06/15 02:10:37;;;;;;;11.82;6.68;;;;;;;15.94;76.72;101756.69;5005774;28;20045;-73
2023/06/15 02:13:06;;;;;;;10.45;5.97;;;;;;;15.77;78.70;101748.22;4991098;28;20030;-73
2023/06/15 02:15:31;;;;;;;7.43;5.10;;;;;;;15.72;79.20;101745.38;4990900;28;20469;-72
2023/06/15 02:18:03;;;;;;;9.18;5.22;;;;;;;15.66;78.98;101755.03;4973187;28;20026;-73
2023/06/15 02:20:29;;;;;;;10.70;6.70;;;;;;;15.59;79.09;101751.53;4990955;28;20038;-72
2023/06/15 02:22:57;;;;;;;7.95;5.13;;;;;;;15.61;80.00;101762.91;5007386;28;20030;-72
2023/06/15 02:25:23;;;;;;;8.48;6.18;;;;;;;15.54;81.23;101765.59;5009560;28;20034;-72
2023/06/15 02:27:49;;;;;;;8.32;6.00;;;;;;;15.48;80.62;101762.91;5009337;28;20492;-72
2023/06/15 02:30:14;;;;;;;10.75;6.70;;;;;;;15.42;79.56;101763.75;5009317;28;20030;-72
2023/06/15 02:32:42;;;;;;;8.45;5.78;;;;;;;15.39;80.83;101769.53;5009922;28;20084;-72
2023/06/15 02:35:09;;;;;;;8.45;6.20;;;;;;;15.34;81.17;101762.06;5009557;28;20034;-72
2023/06/15 02:37:35;;;;;;;9.98;6.38;;;;;;;15.32;80.47;101775.72;4991798;28;20860;-72
2023/06/15 02:40:03;;;;;;;11.00;6.50;;;;;;;15.28;81.56;101769.09;5009201;28;20033;-72
2023/06/15 02:42:28;;;;;;;10.50;5.85;;;;;;;15.32;80.83;101780.25;5009209;28;20058;-72
2023/06/15 02:44:54;;;;;;;7.05;5.20;;;;;;;15.35;81.57;101774.47;4990296;28;20058;-72
2023/06/15 02:47:19;;;;;;;10.77;5.50;;;;;;;15.34;81.32;101780.91;4990503;28;20053;-72
2023/06/15 02:49:44;;;;;;;10.40;5.75;;;;;;;15.35;80.72;101779.84;4990270;28;20045;-72
2023/06/15 02:52:10;;;;;;;10.60;6.30;;;;;;;15.29;81.32;101778.00;4990433;28;20088;-72
2023/06/15 02:54:36;;;;;;;10.82;6.57;;;;;;;15.18;81.75;101776.75;4990313;28;20501;-72
2023/06/15 02:57:06;;;;;;;10.18;6.53;;;;;;;15.13;81.79;101780.03;4990406;28;20041;-72
2023/06/15 02:59:32;;;;;;;11.68;6.38;;;;;;;15.11;82.52;101779.41;4990213;28;20027;-72
2023/06/15 03:01:57;;;;;;;11.05;5.97;;;;;;;15.11;82.79;101778.56;4972660;28;20058;-72
2023/06/15 03:04:23;;;;;;;10.55;6.40;;;;;;;15.08;83.69;101774.44;4990326;28;20076;-72
2023/06/15 03:06:52;;;;;;;8.00;5.85;;;;;;;15.08;83.05;101776.31;4990340;28;20126;-72
2023/06/15 03:09:18;;;;;;;8.23;5.70;;;;;;;15.08;81.77;101777.13;4989935;28;20023;-72
2023/06/15 03:11:44;;;;;;;8.32;6.32;;;;;;;15.05;83.79;101776.72;4990015;28;20073;-72
2023/06/15 03:14:12;;;;;;;8.15;5.43;;;;;;;15.07;83.92;101771.97;4990138;28;20030;-72
2023/06/15 03:16:46;;;;;;;9.05;5.63;;;;;;;14.98;84.20;101776.69;4990267;28;20034;-72
2023/06/15 03:19:14;;;;;;;10.57;6.47;;;;;;;15.00;85.99;101785.38;4990334;28;20022;-72
2023/06/15 03:21:39;;;;;;;17.27;6.72;;;;;;;14.92;84.25;101784.75;4990003;28;20026;-73
2023/06/15 03:24:05;;;;;;;9.20;5.80;;;;;;;14.84;83.78;101783.88;4989932;28;20125;-72
2023/06/15 03:26:33;;;;;;;16.67;6.72;;;;;;;14.83;84.31;101787.63;4989869;28;20037;-72
2023/06/15 03:28:58;;;;;;;10.20;6.70;;;;;;;14.75;85.71;101778.91;4989417;28;20050;-72
2023/06/15 03:31:28;;;;;;;12.55;6.53;;;;;;;14.74;86.60;101783.44;4989892;28;20050;-72
2023/06/15 03:33:54;;;;;;;13.63;6.60;;;;;;;14.81;85.80;101783.47;4972848;28;20030;-72
2023/06/15 03:36:21;;;;;;;13.93;6.72;;;;;;;14.77;87.39;101790.25;4989682;28;20121;-73
2023/06/15 03:38:47;;;;;;;9.07;5.95;;;;;;;14.76;87.36;101786.75;4989900;28;20042;-72
2023/06/15 03:41:12;;;;;;;10.57;6.45;;;;;;;14.79;86.42;101782.84;4989879;28;20074;-72
2023/06/15 03:43:37;;;;;;;10.70;6.95;;;;;;;14.86;83.98;101781.84;4989561;28;20035;-72
2023/06/15 03:46:05;;;;;;;16.20;9.05;;;;;;;14.85;85.12;101790.91;4989576;28;20046;-73
2023/06/15 03:48:31;;;;;;;10.93;7.15;;;;;;;14.85;87.20;101782.03;4989640;28;20030;-72
2023/06/15 03:50:56;;;;;;;11.65;7.63;;;;;;;14.82;86.42;101782.44;4990554;28;20041;-72
2023/06/15 03:53:22;;;;;;;9.95;6.75;;;;;;;14.84;86.64;101775.84;4993654;28;20053;-72
2023/06/15 03:55:47;;;;;;;8.32;6.43;;;;;;;14.84;86.05;101783.06;4993403;28;20055;-72
2023/06/15 03:58:14;;;;;;;12.63;7.18;;;;;;;14.87;86.59;101783.47;4993601;28;20109;-72
2023/06/15 04:00:40;;;;;;;12.55;7.55;;;;;;;14.96;85.74;101784.16;4993498;28;20466;-72
2023/06/15 04:03:06;;;;;;;13.57;8.35;;;;;;;14.96;86.95;101791.34;4993553;28;20048;-72
2023/06/15 04:05:32;;;;;;;11.93;6.90;;;;;;;14.97;87.78;101790.34;4976062;28;20457;-72
2023/06/15 04:07:59;;;;;;;14.38;7.55;;;;;;;15.05;86.70;101793.66;4975883;28;20050;-72
2023/06/15 04:10:25;;;;;;;9.60;7.20;;;;;;;15.12;86.09;101797.19;4993187;28;20409;-72
2023/06/15 04:12:50;;;;;;;12.38;8.27;;;;;;;15.23;84.02;101792.25;5011774;28;20034;-73
2023/06/15 04:15:16;;;;;;;12.57;8.35;;;;;;;15.31;82.69;101789.38;5012032;28;20029;-72
2023/06/15 04:17:41;;;;;;;13.80;8.38;;;;;;;15.40;84.05;101800.75;5011824;28;20036;-72
2023/06/15 04:20:08;;;;;;;12.90;7.75;;;;;;;15.48;83.85;101796.00;5012308;28;20022;-72
2023/06/15 04:22:34;;;;;;;9.60;6.70;;;;;;;15.50;84.25;101793.09;4994319;28;20064;-72
2023/06/15 04:25:00;;;;;;;10.35;8.10;;;;;;;15.65;82.80;101792.91;4975314;28;20030;-72
2023/06/15 04:27:27;;;;;;;13.60;8.35;;;;;;;15.68;82.99;101797.88;4975582;28;20192;-72
2023/06/15 04:29:53;;;;;;;15.43;8.18;;;;;;;15.73;82.56;101798.94;4992803;28;20176;-72
2023/06/15 04:32:18;;;;;;;14.82;8.30;;;;;;;15.81;81.98;101805.97;4993046;28;20035;-72
2023/06/15 04:34:45;;;;;;;16.30;9.65;;;;;;;15.87;81.42;101798.91;4992974;28;20038;-72
2023/06/15 04:37:11;;;;;;;15.73;8.07;;;;;;;15.99;79.71;101806.16;4993238;28;20081;-72
2023/06/15 04:39:37;;;;;;;17.83;8.85;;;;;;;16.09;79.80;101796.84;4992728;28;20110;-72
2023/06/15 04:42:03;;;;;;;12.20;8.15;;;;;;;16.53;79.15;101798.78;4992802;28;20682;-72
2023/06/15 04:44:28;;;;;;;16.02;8.73;;;;;;;16.93;78.00;101800.50;4992587;28;20489;-72
2023/06/15 04:46:54;;;;;;;16.88;8.73;;;;;;;17.01;77.48;101797.53;4975020;28;20038;-72
2023/06/15 04:49:20;;;;;;;16.77;9.57;;;;;;;16.97;76.97;101809.78;4992408;28;20096;-72
2023/06/15 04:51:45;;;;;;;16.52;8.48;;;;;;;16.93;76.57;101809.41;4992546;28;20045;-72
2023/06/15 04:54:10;;;;;;;15.35;9.13;;;;;;;16.90;77.17;101809.84;4958711;28;20105;-72
2023/06/15 04:56:36;;;;;;;16.05;8.50;;;;;;;16.85;76.97;101815.88;4992405;28;20033;-72
2023/06/15 04:59:02;;;;;;;15.43;9.88;;;;;;;16.86;77.08;101816.69;4992342;28;20470;-72
2023/06/15 05:01:27;;;;;;;18.02;9.65;;;;;;;16.91;77.27;101821.44;4992443;28;20121;-72
2023/06/15 05:03:54;;;;;;;18.90;10.13;;;;;;;16.99;77.17;101822.00;4990968;28;20073;-73
2023/06/15 05:06:19;;;;;;;14.65;10.20;;;;;;;17.35;76.47;101817.88;4992329;28;20033;-72
2023/06/15 05:08:45;;;;;;;16.02;9.48;;;;;;;17.84;74.72;101810.88;4992093;28;20042;-72
2023/06/15 05:11:10;;;;;;;20.40;10.82;;;;;;;18.03;72.94;101816.31;4974437;28;20053;-72
2023/06/15 05:13:35;;;;;;;15.55;10.13;;;;;;;17.98;73.34;101824.25;4991977;28;20066;-72
2023/06/15 05:16:01;;;;;;;17.05;10.00;;;;;;;17.89;74.06;101821.81;4991904;28;20037;-72
2023/06/15 05:18:26;;;;;;;14.02;10.32;;;;;;;17.90;73.87;101823.47;4991892;28;20049;-72
2023/06/15 05:20:52;;;;;;;16.77;10.10;;;;;;;18.00;72.83;101822.13;4992088;28;20173;-72
2023/06/15 05:23:21;;;;;;;22.50;11.70;;;;;;;17.98;72.94;101822.38;4992006;28;20511;-72
2023/06/15 05:25:47;;;;;;;18.23;9.65;;;;;;;18.02;72.75;101823.56;4992021;28;20062;-72
2023/06/15 05:28:12;;;;;;;16.20;9.70;;;;;;;18.01;74.51;101821.09;4991825;28;20443;-72
2023/06/15 05:30:38;;;;;;;14.85;10.82;;;;;;;18.05;73.95;101824.97;4991497;28;20034;-72
2023/06/15 05:33:03;;;;;;;17.10;11.07;;;;;;;18.09;73.36;101824.31;4991787;28;20559;-72
2023/06/15 05:35:29;;;;;;;14.80;11.13;;;;;;;18.12;73.05;101829.28;4991851;28;20120;-72
2023/06/15 05:37:55;;;;;;;15.32;10.77;;;;;;;18.17;72.94;101826.72;4991683;28;20070;-72
2023/06/15 05:40:20;;;;;;;15.45;10.75;;;;;;;18.21;73.25;101826.28;4991671;28;20027;-72
2023/06/15 05:42:45;;;;;;;16.25;10.60;;;;;;;18.29;73.80;101828.72;4991558;28;20592;-72
2023/06/15 05:45:11;;;;;;;17.20;10.98;;;;;;;18.44;72.79;101831.03;4974087;28;20066;-72
2023/06/15 05:47:36;;;;;;;17.10;11.10;;;;;;;18.51;72.44;101831.78;4991422;28;20165;-72
2023/06/15 05:50:01;;;;;;;14.82;9.02;;;;;;;18.58;69.12;101835.25;4991460;28;20070;-72
2023/06/15 05:52:27;;;;;;;17.20;9.85;;;;;;;18.67;70.10;101838.44;4973978;28;20109;-73
2023/06/15 05:54:53;;;;;;;15.63;10.10;;;;;;;18.79;69.34;101834.78;4991448;28;20121;-72
2023/06/15 05:57:18;;;;;;;13.98;9.55;;;;;;;18.98;68.86;101838.28;4991298;28;20508;-72
2023/06/15 05:59:47;;;;;;;17.77;9.77;;;;;;;19.05;70.13;101838.22;4991242;28;20042;-72
2023/06/15 06:02:12;;;;;;;15.73;10.23;;;;;;;19.12;68.06;101846.22;4991352;28;20765;-72
2023/06/15 06:04:38;;;;;;;16.52;10.90;;;;;;;19.11;69.10;101842.69;4991231;28;20030;-72
2023/06/15 06:07:07;;;;;;;14.27;9.85;;;;;;;19.14;68.02;101841.41;4990929;28;20738;-72
2023/06/15 06:09:34;;;;;;;19.38;11.15;;;;;;;19.11;67.72;101840.00;4990820;28;20065;-72
2023/06/15 06:12:00;;;;;;;14.48;9.85;;;;;;;19.10;67.37;101834.78;4991226;28;20034;-72
2023/06/15 06:14:26;;;;;;;15.68;10.50;;;;;;;19.09;66.95;101838.56;4974886;28;20033;-72
2023/06/15 06:16:52;;;;;;;12.75;10.10;;;;;;;19.08;68.54;101832.34;5009545;28;20354;-72
2023/06/15 06:19:17;;;;;;;14.02;9.35;;;;;;;19.17;67.49;101835.53;5010053;28;20153;-72
2023/06/15 06:21:43;;;;;;;18.52;10.43;;;;;;;19.27;69.11;101843.94;5009604;28;20054;-72
2023/06/15 06:24:09;;;;;;;16.15;11.10;;;;;;;19.32;67.53;101838.66;5009632;28;20040;-72
2023/06/15 06:26:38;;;;;;;17.55;11.15;;;;;;;19.39;67.29;101830.44;5009821;28;20034;-72
2023/06/15 06:29:03;;;;;;;16.05;10.45;;;;;;;19.47;67.85;101844.47;5009379;28;20457;-72
2023/06/15 06:31:29;;;;;;;24.98;12.07;;;;;;;19.49;66.42;101844.22;4991746;28;20095;-71
2023/06/15 06:33:54;;;;;;;15.18;10.13;;;;;;;19.51;67.68;101836.69;5009215;28;20038;-72
2023/06/15 06:36:20;;;;;;;15.93;10.32;;;;;;;19.59;65.80;101843.66;5009856;28;20026;-72
2023/06/15 06:38:45;;;;;;;18.38;11.40;;;;;;;19.62;65.40;101844.03;5009313;28;20022;-72
2023/06/15 06:41:11;;;;;;;22.50;12.25;;;;;;;19.66;65.71;101847.94;5009205;28;20461;-72
2023/06/15 06:43:36;;;;;;;16.73;11.55;;;;;;;19.78;67.05;101844.41;5009329;28;20034;-72
2023/06/15 06:46:02;;;;;;;21.02;13.07;;;;;;;19.80;66.55;101845.00;5009579;28;20065;-72
2023/06/15 06:48:27;;;;;;;17.60;13.57;;;;;;;19.83;65.15;101849.94;5009526;28;20519;-75
2023/06/15 06:50:53;;;;;;;18.95;12.63;;;;;;;19.86;65.97;101852.22;4994120;28;20026;-75
2023/06/15 06:53:18;;;;;;;20.02;12.10;;;;;;;19.95;64.48;101847.25;4991144;28;20026;-75
2023/06/15 06:55:45;;;;;;;18.73;12.38;;;;;;;19.99;64.26;101843.84;4993520;28;20058;-75
2023/06/15 06:58:11;;;;;;;15.20;11.07;;;;;;;20.00;63.77;101848.19;4992198;28;20029;-73
2023/06/15 07:00:36;;;;;;;16.90;11.80;;;;;;;20.05;64.62;101856.44;4993301;28;20044;-75
2023/06/15 07:03:02;;;;;;;16.48;11.95;;;;;;;20.12;64.70;101851.75;4991895;28;20469;-74
2023/06/15 07:05:28;;;;;;;17.17;12.23;;;;;;;20.17;64.92;101848.31;4994035;28;20057;-73
2023/06/15 07:07:53;;;;;;;24.83;12.77;;;;;;;20.27;64.45;101851.25;4990280;28;20116;-73
2023/06/15 07:10:18;;;;;;;20.42;13.65;;;;;;;20.34;63.26;101849.25;4989988;28;20042;-73
2023/06/15 07:12:44;;;;;;;18.60;11.98;;;;;;;20.43;64.41;101852.41;4990055;28;20068;-73
2023/06/15 07:15:10;;;;;;;19.50;12.40;;;;;;;20.50;63.07;101842.25;4989955;28;20031;-73
2023/06/15 07:17:35;;;;;;;18.73;13.20;;;;;;;20.55;63.45;101841.59;4989982;28;20112;-73
2023/06/15 07:20:01;;;;;;;19.13;12.95;;;;;;;20.64;64.53;101850.97;4989731;28;20022;-73
2023/06/15 07:22:26;;;;;;;32.30;13.15;;;;;;;20.70;63.63;101844.63;4990007;28;20493;-73
2023/06/15 07:24:51;;;;;;;17.77;12.32;;;;;;;20.74;63.34;101848.47;4997277;28;20350;-73
2023/06/15 07:27:18;;;;;;;20.30;12.15;;;;;;;20.83;62.81;101848.09;5008539;28;20061;-74
2023/06/15 07:29:44;;;;;;;17.30;11.75;;;;;;;20.92;61.87;101847.47;5008664;28;20080;-74
2023/06/15 07:32:09;;;;;;;16.85;10.45;;;;;;;21.00;61.43;101844.38;5009081;28;20427;-74
2023/06/15 07:34:35;;;;;;;15.45;10.05;;;;;;;21.09;62.17;101844.84;5000696;28;20041;-74
2023/06/15 07:37:00;;;;;;;16.85;10.82;;;;;;;21.14;61.01;101838.66;4990144;28;20394;-73
2023/06/15 07:39:26;;;;;;;16.75;9.77;;;;;;;21.25;60.85;101843.22;5002104;28;20053;-73
2023/06/15 07:41:51;;;;;;;17.55;9.32;;;;;;;21.33;58.14;101847.44;5008872;28;20025;-73
2023/06/15 07:44:17;;;;;;;16.77;9.43;;;;;;;21.40;58.97;101853.53;5008712;28;20034;-73
2023/06/15 07:46:42;;;;;;;22.65;9.65;;;;;;;21.46;59.99;101844.44;5008843;28;20409;-72
2023/06/15 07:49:07;;;;;;;16.02;8.07;;;;;;;21.56;57.97;101854.63;5007514;28;20037;-73
2023/06/15 07:51:36;;;;;;;16.33;8.57;;;;;;;21.59;55.39;101852.25;4993210;28;20034;-73
2023/06/15 07:54:02;;;;;;;22.23;9.27;;;;;;;21.63;55.25;101847.16;5004748;28;20041;-73
2023/06/15 07:56:27;;;;;;;13.73;8.23;;;;;;;21.68;55.43;101844.53;4995213;28;20038;-73
2023/06/15 07:58:53;;;;;;;12.00;7.93;;;;;;;21.78;56.49;101846.59;4989927;28;20018;-73
2023/06/15 08:01:19;;;;;;;10.75;5.93;;;;;;;21.87;53.87;101845.91;4990050;28;20033;-73
2023/06/15 08:03:44;;;;;;;16.70;8.20;;;;;;;21.91;53.57;101846.25;4992288;28;20026;-73
2023/06/15 08:06:10;;;;;;;13.85;6.55;;;;;;;22.00;54.55;101846.66;5007176;28;20022;-73
2023/06/15 08:08:36;;;;;;;11.55;6.05;;;;;;;22.11;52.85;101856.59;4989742;28;20031;-73
2023/06/15 08:11:02;;;;;;;9.95;5.88;;;;;;;22.24;52.96;101850.00;4989930;28;20045;-74
2023/06/15 08:13:27;;;;;;;12.60;6.65;;;;;;;22.56;50.52;101850.19;4992437;28;20092;-74
2023/06/15 08:15:53;;;;;;;11.30;6.43;;;;;;;23.41;50.36;101845.13;4993579;28;20030;-74
2023/06/15 08:18:18;;;;;;;11.35;7.18;;;;;;;25.56;46.04;101841.53;4993790;28;20057;-73
2023/06/15 08:20:44;;;;;;;13.43;5.80;;;;;;;28.01;39.94;101846.97;4976238;28;20024;-74
2023/06/15 08:23:10;;;;;;;6.60;4.40;;;;;;;30.12;36.20;101842.78;4994084;28;20023;-76
2023/06/15 08:25:35;;;;;;;6.00;3.70;;;;;;;31.59;31.69;101837.06;4993089;28;20032;-74
2023/06/15 08:28:01;;;;;;;6.20;4.72;;;;;;;33.23;29.49;101847.00;4993546;28;20022;-75
2023/06/15 08:30:27;;;;;;;8.13;4.90;;;;;;;33.81;27.03;101851.13;4994059;28;20092;-74
2023/06/15 08:32:52;;;;;;;6.90;5.00;;;;;;;34.48;25.84;101837.63;4993918;28;20031;-74
2023/06/15 08:35:17;;;;;;;10.05;5.65;;;;;;;34.91;25.79;101847.59;4993705;28;21324;-75
2023/06/15 08:37:43;;;;;;;8.35;4.55;;;;;;;35.54;25.43;101839.19;4996862;28;20025;-75
2023/06/15 08:40:09;;;;;;;6.13;4.22;;;;;;;35.71;25.53;101843.75;4997344;28;20188;-75
2023/06/15 08:42:34;;;;;;;5.57;3.72;;;;;;;36.02;23.97;101840.44;4997060;28;20034;-76
2023/06/15 08:45:04;;;;;;;32.45;6.50;;;;;;;36.27;22.78;101838.50;4997071;28;20117;-75
2023/06/15 08:47:31;;;;;;;6.00;3.40;;;;;;;36.48;21.86;101832.00;4996161;28;20037;-75
2023/06/15 08:50:03;;;;;;;5.20;3.28;;;;;;;36.01;21.86;101849.94;4996998;28;20033;-75
2023/06/15 08:52:32;;;;;;;6.40;3.60;;;;;;;35.78;21.87;101839.25;4996629;28;20024;-75
2023/06/15 08:54:59;;;;;;;11.40;4.65;;;;;;;35.99;21.62;101839.16;4996495;28;20034;-75
2023/06/15 08:57:25;;;;;;;10.13;4.32;;;;;;;35.80;23.50;101832.56;4997761;28;20029;-75
2023/06/15 08:59:51;;;;;;;9.40;3.80;;;;;;;35.91;21.67;101840.09;4997231;28;20027;-75
2023/06/15 09:02:21;;;;;;;7.35;3.72;;;;;;;36.29;22.46;101835.34;4996466;28;20038;-75
2023/06/15 09:04:53;;;;;;;5.28;3.40;;;;;;;36.11;21.76;101838.41;4996785;28;20030;-75
2023/06/15 09:07:20;;;;;;;10.27;4.28;;;;;;;34.48;22.62;101837.63;4996717;28;20075;-75
2023/06/15 09:10:10;;;;;;;4.35;3.72;;;;;;;32.66;25.11;101842.38;4997064;28;20569;-75
2023/06/15 09:12:48;;;;;;;11.95;4.45;;;;;;;30.47;27.42;101835.78;4996411;28;20030;-75
2023/06/15 09:15:27;;;;;;;4.05;3.40;;;;;;;29.40;29.21;101843.25;4996381;28;20056;-76
2023/06/15 09:17:57;;;;;;;6.72;3.80;;;;;;;28.26;30.54;101837.63;4996149;28;20063;-73
2023/06/15 09:20:37;;;;;;;7.57;3.47;;;;;;;27.80;32.48;101834.50;4996838;28;20057;-73
2023/06/15 09:23:05;;;;;;;11.00;4.60;;;;;;;27.39;32.57;101834.91;4996799;28;20022;-73
2023/06/15 09:25:36;;;;;;;6.20;3.40;;;;;;;27.07;35.19;101831.53;4996228;28;20041;-74
2023/06/15 09:28:06;;;;;;;6.18;4.38;;;;;;;26.88;33.88;101828.63;4996036;28;20038;-74
2023/06/15 09:30:36;;;;;;;7.28;3.38;;;;;;;26.66;34.05;101820.00;4996885;28;20073;-73
2023/06/15 09:33:11;;;;;;;4.72;3.30;;;;;;;26.70;34.69;101831.19;4995926;28;20090;-73
2023/06/15 09:35:37;;;;;;;8.35;3.47;;;;;;;26.45;34.07;101819.25;4996566;28;20720;-74
2023/06/15 09:38:02;;;;;;;5.88;3.60;;;;;;;26.31;34.15;101808.09;4997069;28;20109;-74
2023/06/15 09:40:31;;;;;;;10.07;4.55;;;;;;;26.20;34.23;101825.66;4995923;28;20026;-73
2023/06/15 09:42:58;;;;;;;5.18;3.63;;;;;;;26.27;35.89;101814.38;4995894;28;20379;-73
2023/06/15 09:45:23;;;;;;;5.30;3.70;;;;;;;26.36;34.96;101829.13;4996042;28;20091;-74
2023/06/15 09:47:56;;;;;;;7.32;3.78;;;;;;;26.43;36.13;101824.16;4995473;28;20433;-74
2023/06/15 09:50:28;;;;;;;5.47;3.85;;;;;;;26.36;36.29;101820.94;4995796;28;20038;-74
2023/06/15 09:52:55;;;;;;;6.28;4.05;;;;;;;26.28;34.34;101810.53;4995468;28;20037;-73
2023/06/15 09:55:22;;;;;;;6.05;3.50;;;;;;;26.39;34.74;101812.97;4995741;28;20034;-73
2023/06/15 09:57:49;;;;;;;9.68;3.83;;;;;;;26.53;34.70;101812.41;4996622;28;20033;-73
2023/06/15 10:00:15;;;;;;;6.15;3.53;;;;;;;26.38;34.47;101818.72;4995882;28;20010;-73
2023/06/15 10:02:43;;;;;;;5.65;3.78;;;;;;;26.09;35.95;101811.16;4960200;28;20976;-73
2023/06/15 10:05:14;;;;;;;10.77;4.05;;;;;;;25.85;34.85;101810.94;4995670;28;20021;-76
2023/06/15 10:07:46;;;;;;;6.80;3.97;;;;;;;25.59;35.63;101812.84;4995245;28;20045;-75
2023/06/15 10:10:13;;;;;;;9.65;4.15;;;;;;;25.51;37.47;101819.69;5000575;28;20166;-77
2023/06/15 10:12:44;;;;;;;7.03;3.72;;;;;;;25.39;37.79;101816.44;5010031;28;20756;-77
2023/06/15 10:15:12;;;;;;;10.77;3.80;;;;;;;25.32;36.48;101826.78;5009905;28;20033;-72
2023/06/15 10:17:40;;;;;;;7.30;3.63;;;;;;;25.13;36.83;101812.84;4995794;28;20030;-73
2023/06/15 10:20:12;;;;;;;7.22;4.28;;;;;;;25.14;38.17;101815.28;4995278;28;20429;-74
2023/06/15 10:22:45;;;;;;;9.82;4.15;;;;;;;25.25;39.43;101824.31;4995917;28;20030;-74
2023/06/15 10:25:11;;;;;;;7.38;4.00;;;;;;;25.21;39.89;101820.50;5006691;28;20056;-70
2023/06/15 10:27:37;;;;;;;9.00;4.07;;;;;;;25.16;38.30;101817.78;4984258;28;20065;-71
2023/06/15 10:30:35;;;;;;;7.47;3.78;;;;;;;25.03;40.57;101815.53;5007638;28;20061;-71
2023/06/15 10:33:19;;;;;;;10.38;4.30;;;;;;;24.90;38.17;101820.41;4981801;28;20050;-71
2023/06/15 10:35:50;;;;;;;5.43;3.33;;;;;;;25.01;40.99;101807.59;4999494;28;20040;-71
2023/06/15 10:38:34;;;;;;;5.47;3.50;;;;;;;25.44;38.71;101819.16;5009698;28;20026;-70
2023/06/15 10:41:00;;;;;;;5.47;3.80;;;;;;;25.76;35.77;101820.78;5001992;28;20379;-71
2023/06/15 10:43:29;;;;;;;8.25;4.28;;;;;;;25.99;35.94;101819.38;5008842;28;20508;-71
2023/06/15 10:45:55;;;;;;;6.95;3.72;;;;;;;26.15;34.80;101823.72;4998184;28;20500;-71
2023/06/15 10:48:26;;;;;;;9.43;4.45;;;;;;;26.23;34.86;101814.94;4998967;28;20038;-71
2023/06/15 10:51:02;;;;;;;5.35;4.18;;;;;;;26.47;35.13;101808.84;5009342;28;20037;-71
2023/06/15 10:53:28;;;;;;;7.45;3.65;;;;;;;26.59;33.80;101817.59;5003804;28;20033;-71
2023/06/15 10:55:58;;;;;;;13.27;4.70;;;;;;;26.52;34.73;101806.13;4997051;28;20502;-71
2023/06/15 10:58:26;;;;;;;9.23;5.68;;;;;;;26.28;34.18;101813.28;4993803;28;20473;-71
2023/06/15 11:01:13;;;;;;;7.68;3.78;;;;;;;25.99;34.72;101811.19;4998397;28;20027;-71
2023/06/15 11:03:42;;;;;;;5.68;3.40;;;;;;;25.72;35.92;101814.22;5008707;28;20029;-71
2023/06/15 11:06:13;;;;;;;8.23;4.10;;;;;;;25.79;35.69;101806.56;5004940;28;20503;-71
2023/06/15 11:08:52;;;;;;;7.43;4.22;;;;;;;26.13;34.10;101811.44;4999575;28;20060;-71
2023/06/15 11:11:26;;;;;;;8.77;3.92;;;;;;;26.12;33.96;101812.50;5006055;28;20034;-72
2023/06/15 11:13:56;;;;;;;5.00;4.03;;;;;;;25.70;34.71;101816.41;5002903;28;20453;-72
2023/06/15 11:16:29;;;;;;;7.75;4.45;;;;;;;25.30;35.51;101807.13;4997751;28;20045;-71
2023/06/15 11:19:10;;;;;;;8.30;3.88;;;;;;;25.10;35.42;101810.66;4994673;28;20026;-71